Time;durP1;ratioP1;P1;durP2;ratioP2;P2;SDS_P1;SDS_P2;PMS_P1;PMS_P2;Temp;Humidity;BMP_temperature;BMP_pressure;BME280_temperature;BME280_humidity;BME280_pressure;Samples;Min_cycle;Max_cycle;Signal;HPM_P1;HPM_P2
2023/04/28 00:02:06;;;;;;;12.00;7.88;;;10.30;82.90;;;;;;5051592;28;20227;-76
2023/04/28 00:04:33;;;;;;;8.23;7.22;;;10.30;82.90;;;;;;5052633;28;20749;-75
2023/04/28 00:07:01;;;;;;;10.10;7.95;;;10.40;82.90;;;;;;5052310;28;20278;-75
2023/04/28 00:09:29;;;;;;;9.98;8.00;;;10.30;82.80;;;;;;5052324;28;20229;-75
2023/04/28 00:12:01;;;;;;;10.48;8.30;;;10.30;82.80;;;;;;5050976;28;20564;-76
2023/04/28 00:14:28;;;;;;;10.85;8.20;;;10.30;82.80;;;;;;5052713;28;20255;-76
2023/04/28 00:16:58;;;;;;;9.70;8.18;;;10.30;82.80;;;;;;5051382;28;20230;-76
2023/04/28 00:19:25;;;;;;;10.25;8.00;;;10.20;83.00;;;;;;5052522;28;20278;-75
2023/04/28 00:21:52;;;;;;;11.52;8.52;;;10.20;82.90;;;;;;5051863;28;20230;-76
2023/04/28 00:24:19;;;;;;;10.45;8.02;;;10.20;82.80;;;;;;5052719;28;20220;-75
2023/04/28 00:26:47;;;;;;;11.68;7.57;;;10.20;82.70;;;;;;5052037;28;20232;-76
2023/04/28 00:29:16;;;;;;;8.85;7.30;;;10.20;82.90;;;;;;5053088;28;20224;-75
2023/04/28 00:31:44;;;;;;;9.30;7.57;;;10.20;82.80;;;;;;5069865;28;20220;-76
2023/04/28 00:34:13;;;;;;;11.88;7.72;;;10.20;82.50;;;;;;5072052;28;20212;-76
2023/04/28 00:36:41;;;;;;;8.52;6.82;;;10.10;82.60;;;;;;5072363;28;20281;-76
2023/04/28 00:39:08;;;;;;;7.90;6.70;;;10.10;82.50;;;;;;5071752;28;20227;-75
2023/04/28 00:41:36;;;;;;;9.93;7.30;;;10.10;82.30;;;;;;5072195;28;20564;-75
2023/04/28 00:44:05;;;;;;;11.50;8.30;;;10.10;82.50;;;;;;5071215;28;20219;-75
2023/04/28 00:46:34;;;;;;;9.07;7.28;;;10.00;82.10;;;;;;5072595;28;20709;-75
2023/04/28 00:49:01;;;;;;;8.30;6.47;;;10.00;82.10;;;;;;5071292;28;20262;-76
2023/04/28 00:51:29;;;;;;;8.70;7.20;;;10.00;82.10;;;;;;5072486;28;20227;-75
2023/04/28 00:53:57;;;;;;;6.90;6.03;;;10.00;82.10;;;;;;5070899;28;20219;-75
2023/04/28 00:56:26;;;;;;;7.45;6.75;;;10.00;82.20;;;;;;5085552;28;20301;-75
2023/04/28 00:58:59;;;;;;;8.57;6.45;;;10.00;82.30;;;;;;5091941;28;20223;-75
2023/04/28 01:01:30;;;;;;;8.88;6.72;;;10.00;82.20;;;;;;5092184;28;20215;-75
2023/04/28 01:03:57;;;;;;;9.45;6.13;;;10.00;81.80;;;;;;5092126;28;20247;-75
2023/04/28 01:06:25;;;;;;;6.35;5.72;;;10.00;81.90;;;;;;5091006;28;20305;-76
2023/04/28 01:08:52;;;;;;;7.88;5.35;;;9.90;82.70;;;;;;5074274;28;20227;-75
2023/04/28 01:11:21;;;;;;;10.48;6.30;;;9.90;82.60;;;;;;5091770;28;20352;-75
2023/04/28 01:13:48;;;;;;;7.55;5.75;;;10.00;81.30;;;;;;5092126;28;20314;-75
2023/04/28 01:16:15;;;;;;;6.72;5.80;;;9.90;82.70;;;;;;5088327;28;20231;-77
2023/04/28 01:18:48;;;;;;;7.68;5.90;;;9.90;82.60;;;;;;5091903;28;20228;-76
2023/04/28 01:21:36;;;;;;;8.30;6.40;;;10.00;81.60;;;;;;5088401;28;20712;-77
2023/04/28 01:24:06;;;;;;;6.80;6.00;;;9.90;82.80;;;;;;5093855;28;20219;-75
2023/04/28 01:26:34;;;;;;;6.53;5.85;;;9.90;82.80;;;;;;5095492;28;20223;-75
2023/04/28 01:29:04;;;;;;;7.75;5.55;;;9.90;82.90;;;;;;5094904;28;20223;-75
2023/04/28 01:31:31;;;;;;;14.82;5.80;;;9.90;82.70;;;;;;5079136;28;20606;-75
2023/04/28 01:34:00;;;;;;;5.15;4.65;;;9.90;82.70;;;;;;5075846;28;20234;-74
2023/04/28 01:36:34;;;;;;;8.05;6.65;;;9.90;82.60;;;;;;5062214;28;20597;-75
2023/04/28 01:39:01;;;;;;;6.55;5.40;;;9.90;82.40;;;;;;5074182;28;20282;-75
2023/04/28 01:41:30;;;;;;;5.50;4.68;;;9.90;82.60;;;;;;5074228;28;20281;-76
2023/04/28 01:43:57;;;;;;;6.30;5.15;;;9.90;82.70;;;;;;5074299;28;20224;-76
2023/04/28 01:46:24;;;;;;;7.85;5.38;;;9.90;82.70;;;;;;5073989;28;20644;-75
2023/04/28 01:48:51;;;;;;;9.80;5.88;;;9.90;82.80;;;;;;5074857;28;20588;-75
2023/04/28 01:51:18;;;;;;;6.95;5.70;;;9.90;83.80;;;;;;5074625;28;20246;-75
2023/04/28 01:53:45;;;;;;;6.90;5.88;;;9.80;82.80;;;;;;5074799;28;20588;-75
2023/04/28 01:56:13;;;;;;;7.93;5.32;;;9.80;82.70;;;;;;5074424;28;20227;-75
2023/04/28 01:58:41;;;;;;;6.70;5.60;;;9.80;83.20;;;;;;5074582;28;20224;-76
2023/04/28 02:01:09;;;;;;;7.82;5.95;;;9.80;83.50;;;;;;5074917;28;20228;-75
2023/04/28 02:03:36;;;;;;;9.75;5.40;;;9.80;83.60;;;;;;5074354;28;20252;-76
2023/04/28 02:06:04;;;;;;;8.57;4.65;;;9.80;83.50;;;;;;5074519;28;20228;-75
2023/04/28 02:08:31;;;;;;;11.82;6.93;;;9.70;83.40;;;;;;5073360;28;20630;-76
2023/04/28 02:11:00;;;;;;;7.65;5.25;;;9.70;83.60;;;;;;5073519;28;20231;-75
2023/04/28 02:13:27;;;;;;;5.18;4.72;;;9.70;84.00;;;;;;5073877;28;20597;-76
2023/04/28 02:15:55;;;;;;;5.35;4.50;;;9.70;84.10;;;;;;5074875;28;20293;-76
2023/04/28 02:18:23;;;;;;;5.22;4.70;;;9.70;84.00;;;;;;5073442;28;20322;-76
2023/04/28 02:20:50;;;;;;;5.50;5.10;;;9.70;84.10;;;;;;5074551;28;20247;-76
2023/04/28 02:23:17;;;;;;;5.85;5.35;;;9.70;84.70;;;;;;5073138;28;20227;-75
2023/04/28 02:25:44;;;;;;;6.88;6.18;;;9.60;84.80;;;;;;5074257;28;20289;-75
2023/04/28 02:28:12;;;;;;;5.70;5.15;;;9.60;85.00;;;;;;5074523;28;20227;-77
2023/04/28 02:30:40;;;;;;;8.82;5.05;;;9.60;85.00;;;;;;5074188;28;20224;-76
2023/04/28 02:33:14;;;;;;;5.05;4.45;;;9.60;85.40;;;;;;5073709;28;20244;-77
2023/04/28 02:35:41;;;;;;;6.20;4.85;;;9.60;85.60;;;;;;5073452;28;20294;-75
2023/04/28 02:38:09;;;;;;;6.60;5.93;;;9.60;85.60;;;;;;5073756;28;20235;-75
2023/04/28 02:40:36;;;;;;;5.90;4.80;;;9.60;85.60;;;;;;5073076;28;20314;-76
2023/04/28 02:43:07;;;;;;;5.72;4.90;;;9.60;85.80;;;;;;5074031;28;20317;-76
2023/04/28 02:45:34;;;;;;;5.57;4.65;;;9.50;86.20;;;;;;5073774;28;20220;-75
2023/04/28 02:48:03;;;;;;;6.40;5.07;;;9.50;86.20;;;;;;5073867;28;20235;-76
2023/04/28 02:50:31;;;;;;;5.32;4.43;;;9.50;86.60;;;;;;5073644;28;20227;-75
2023/04/28 02:52:59;;;;;;;5.68;5.00;;;9.50;86.60;;;;;;5074351;28;20231;-76
2023/04/28 02:55:26;;;;;;;5.03;4.53;;;9.50;86.40;;;;;;5073188;28;20228;-75
2023/04/28 02:57:53;;;;;;;5.90;4.70;;;9.50;86.60;;;;;;5073759;28;20224;-75
2023/04/28 03:00:20;;;;;;;6.85;3.72;;;9.50;87.00;;;;;;5072823;28;20220;-75
2023/04/28 03:02:47;;;;;;;5.45;4.25;;;9.50;87.30;;;;;;5056087;28;20285;-75
2023/04/28 03:05:14;;;;;;;5.53;4.50;;;9.50;87.40;;;;;;5073879;28;20298;-75
2023/04/28 03:07:43;;;;;;;6.13;4.97;;;9.50;87.60;;;;;;5073275;28;20223;-75
2023/04/28 03:10:10;;;;;;;6.28;5.28;;;9.40;87.60;;;;;;5073940;28;20224;-75
2023/04/28 03:12:40;;;;;;;5.53;4.40;;;9.40;87.60;;;;;;5072903;28;20231;-76
2023/04/28 03:15:08;;;;;;;4.63;4.20;;;9.40;87.80;;;;;;5072772;28;20224;-74
2023/04/28 03:17:40;;;;;;;8.25;5.35;;;9.40;87.90;;;;;;5072788;28;20216;-75
2023/04/28 03:20:16;;;;;;;5.60;4.38;;;9.40;88.10;;;;;;5074270;28;20223;-74
2023/04/28 03:22:48;;;;;;;5.55;4.70;;;9.40;88.40;;;;;;5073195;28;20754;-77
2023/04/28 03:25:16;;;;;;;7.35;4.05;;;9.40;88.40;;;;;;5073796;28;20574;-76
2023/04/28 03:27:43;;;;;;;5.55;4.72;;;9.40;88.00;;;;;;5072754;28;20390;-75
2023/04/28 03:30:12;;;;;;;6.05;4.20;;;9.40;87.80;;;;;;5073404;28;20219;-75
2023/04/28 03:32:39;;;;;;;4.32;3.92;;;9.40;87.80;;;;;;5072884;28;20236;-75
2023/04/28 03:35:07;;;;;;;7.82;4.60;;;9.40;88.00;;;;;;5073418;28;20224;-76
2023/04/28 03:37:46;;;;;;;5.05;3.83;;;9.40;88.00;;;;;;5076098;28;20219;-75
2023/04/28 03:40:14;;;;;;;6.07;5.55;;;9.40;87.90;;;;;;5076889;28;20231;-75
2023/04/28 03:42:41;;;;;;;6.18;4.80;;;9.40;88.00;;;;;;5080323;28;20220;-75
2023/04/28 03:45:09;;;;;;;8.70;4.68;;;9.40;87.50;;;;;;5078348;28;20231;-74
2023/04/28 03:47:37;;;;;;;6.32;5.00;;;9.40;87.50;;;;;;5074965;28;20223;-75
2023/04/28 03:50:09;;;;;;;7.10;5.07;;;9.40;87.50;;;;;;5082129;28;20220;-74
2023/04/28 03:52:36;;;;;;;5.10;4.35;;;9.40;87.60;;;;;;5086538;28;20230;-74
2023/04/28 03:55:09;;;;;;;9.77;4.65;;;9.40;87.80;;;;;;5082334;28;20293;-75
2023/04/28 03:57:40;;;;;;;7.03;4.53;;;9.40;87.40;;;;;;5087355;28;20295;-76
2023/04/28 04:00:08;;;;;;;7.85;7.05;;;9.40;87.50;;;;;;5085357;28;20224;-76
2023/04/28 04:02:35;;;;;;;5.28;4.82;;;9.40;87.60;;;;;;5085214;28;20224;-76
2023/04/28 04:05:02;;;;;;;4.70;4.20;;;9.40;87.00;;;;;;5087138;28;20228;-76
2023/04/28 04:07:29;;;;;;;5.47;4.18;;;9.40;86.90;;;;;;5085920;28;20238;-75
2023/04/28 04:09:56;;;;;;;4.72;4.20;;;9.40;86.90;;;;;;5087278;28;20219;-76
2023/04/28 04:12:24;;;;;;;6.20;4.07;;;9.40;86.90;;;;;;5089252;28;20307;-77
2023/04/28 04:14:52;;;;;;;6.55;4.65;;;9.40;87.20;;;;;;5078982;28;20216;-77
2023/04/28 04:17:19;;;;;;;6.28;4.32;;;9.40;87.20;;;;;;5074608;28;20259;-76
2023/04/28 04:19:47;;;;;;;5.88;4.30;;;9.40;87.30;;;;;;5074905;28;20277;-75
2023/04/28 04:22:24;;;;;;;4.75;3.90;;;9.50;87.40;;;;;;5075703;28;20220;-76
2023/04/28 04:24:51;;;;;;;5.43;4.68;;;9.50;87.20;;;;;;5076198;28;20657;-76
2023/04/28 04:27:18;;;;;;;4.68;4.22;;;9.50;87.30;;;;;;5082664;28;20223;-76
2023/04/28 04:29:48;;;;;;;4.43;3.95;;;9.50;87.40;;;;;;5081314;28;20223;-74
2023/04/28 04:32:19;;;;;;;8.10;4.75;;;9.50;87.40;;;;;;5088455;28;20230;-77
2023/04/28 04:34:46;;;;;;;5.13;4.15;;;9.60;88.20;;;;;;5092253;28;20238;-77
2023/04/28 04:37:34;;;;;;;7.78;3.95;;;9.60;87.30;;;;;;5091496;28;20212;-76
2023/04/28 04:40:02;;;;;;;5.97;5.05;;;9.60;87.40;;;;;;5091598;28;20212;-77
2023/04/28 04:42:29;;;;;;;6.47;4.40;;;9.60;86.90;;;;;;5086066;28;20230;-75
2023/04/28 04:44:57;;;;;;;4.95;4.45;;;9.60;87.00;;;;;;5089203;28;20299;-77
2023/04/28 04:47:28;;;;;;;6.88;4.18;;;9.70;87.20;;;;;;5073132;28;20215;-76
2023/04/28 04:49:55;;;;;;;5.32;4.38;;;9.70;87.00;;;;;;5071480;28;20522;-76
2023/04/28 04:52:24;;;;;;;7.45;5.13;;;9.70;87.00;;;;;;5081336;28;20223;-76
2023/04/28 04:54:51;;;;;;;5.43;4.55;;;9.60;86.90;;;;;;5085746;28;20272;-76
2023/04/28 04:57:18;;;;;;;4.18;3.70;;;9.60;87.00;;;;;;5084850;28;20261;-75
2023/04/28 04:59:45;;;;;;;4.82;4.43;;;9.60;87.20;;;;;;5072463;28;20228;-76
2023/04/28 05:02:12;;;;;;;5.68;3.90;;;9.70;87.50;;;;;;5083160;28;20220;-75
2023/04/28 05:04:40;;;;;;;6.68;4.65;;;9.70;87.30;;;;;;5085436;28;20248;-77
2023/04/28 05:07:08;;;;;;;5.10;4.55;;;9.70;87.30;;;;;;5081386;28;20543;-77
2023/04/28 05:09:35;;;;;;;5.60;4.70;;;9.70;87.50;;;;;;5078842;28;20299;-76
2023/04/28 05:12:02;;;;;;;5.95;3.90;;;9.70;87.30;;;;;;5076921;28;20228;-76
2023/04/28 05:14:28;;;;;;;5.53;4.65;;;9.80;87.20;;;;;;5076404;28;20285;-75
2023/04/28 05:16:57;;;;;;;4.78;4.25;;;9.80;87.20;;;;;;5075638;28;20236;-76
2023/04/28 05:19:24;;;;;;;8.13;5.60;;;9.90;87.20;;;;;;5077281;28;20219;-76
2023/04/28 05:21:54;;;;;;;6.40;5.47;;;10.00;85.90;;;;;;5075882;28;20228;-76
2023/04/28 05:24:23;;;;;;;7.43;4.90;;;10.00;86.00;;;;;;5075705;28;20230;-75
2023/04/28 05:26:53;;;;;;;5.80;4.43;;;10.10;85.90;;;;;;5075520;28;20247;-76
2023/04/28 05:29:20;;;;;;;4.40;4.00;;;10.10;85.00;;;;;;5075931;28;20311;-75
2023/04/28 05:31:48;;;;;;;7.25;5.00;;;10.10;85.30;;;;;;5075569;28;20235;-75
2023/04/28 05:34:15;;;;;;;6.70;4.35;;;10.20;84.60;;;;;;5074969;28;20618;-75
2023/04/28 05:36:42;;;;;;;5.20;4.70;;;10.20;85.10;;;;;;5075004;28;20326;-75
2023/04/28 05:39:10;;;;;;;5.30;4.28;;;10.30;85.00;;;;;;5076023;28;20219;-75
2023/04/28 05:41:37;;;;;;;5.25;4.40;;;10.30;84.70;;;;;;5076441;28;20228;-74
2023/04/28 05:44:06;;;;;;;10.13;5.25;;;10.40;84.70;;;;;;5076102;28;20279;-75
2023/04/28 05:46:33;;;;;;;8.35;5.10;;;10.40;83.80;;;;;;5066676;28;20258;-74
2023/04/28 05:49:00;;;;;;;9.18;4.82;;;10.40;84.10;;;;;;5075437;28;20227;-75
2023/04/28 05:51:27;;;;;;;6.18;5.57;;;10.50;83.90;;;;;;5075547;28;20311;-75
2023/04/28 05:53:54;;;;;;;6.45;5.85;;;10.50;83.90;;;;;;5075315;28;20232;-75
2023/04/28 05:56:22;;;;;;;7.20;4.57;;;10.60;83.70;;;;;;5075974;28;20298;-74
2023/04/28 05:58:50;;;;;;;5.50;4.65;;;10.70;84.30;;;;;;5075796;28;20224;-76
2023/04/28 06:01:17;;;;;;;10.25;5.15;;;10.80;83.20;;;;;;5075115;28;20669;-76
2023/04/28 06:03:44;;;;;;;4.82;4.43;;;10.80;82.50;;;;;;5076184;28;20244;-75
2023/04/28 06:06:13;;;;;;;5.03;4.53;;;10.90;82.60;;;;;;5074469;28;20230;-75
2023/04/28 06:08:40;;;;;;;11.68;5.18;;;10.90;82.50;;;;;;5074273;28;20231;-75
2023/04/28 06:11:07;;;;;;;6.80;4.70;;;11.00;81.80;;;;;;5074774;28;20220;-75
2023/04/28 06:13:37;;;;;;;6.25;4.70;;;11.10;81.40;;;;;;5075416;28;20660;-75
2023/04/28 06:16:06;;;;;;;7.10;5.10;;;11.10;80.60;;;;;;5073863;28;20232;-75
2023/04/28 06:18:36;;;;;;;7.97;4.70;;;11.10;80.70;;;;;;5074557;28;20335;-77
2023/04/28 06:21:03;;;;;;;5.90;5.35;;;11.20;80.80;;;;;;5075520;28;20228;-76
2023/04/28 06:23:31;;;;;;;7.65;4.80;;;11.20;80.10;;;;;;5074887;28;20301;-77
2023/04/28 06:25:57;;;;;;;10.52;4.80;;;11.30;80.40;;;;;;5075067;28;20262;-76
2023/04/28 06:28:24;;;;;;;5.90;4.60;;;11.40;80.20;;;;;;5077908;28;20220;-75
2023/04/28 06:30:53;;;;;;;7.80;4.75;;;11.40;79.70;;;;;;5076844;28;20224;-75
2023/04/28 06:33:20;;;;;;;6.25;4.78;;;11.50;79.30;;;;;;5073697;28;20220;-75
2023/04/28 06:35:56;;;;;;;8.82;5.30;;;11.50;78.60;;;;;;5056834;28;20244;-75
2023/04/28 06:38:24;;;;;;;6.10;4.78;;;11.60;78.90;;;;;;5074164;28;20239;-75
2023/04/28 06:40:51;;;;;;;9.55;5.20;;;11.70;78.80;;;;;;5056431;28;20228;-77
2023/04/28 06:43:21;;;;;;;6.15;5.50;;;11.80;78.20;;;;;;5074115;28;20227;-76
2023/04/28 06:45:48;;;;;;;6.50;3.90;;;11.90;77.70;;;;;;5074359;28;20254;-76
2023/04/28 06:48:17;;;;;;;6.78;4.97;;;12.00;77.80;;;;;;5073151;28;20227;-75
2023/04/28 06:50:47;;;;;;;6.10;4.35;;;12.20;77.40;;;;;;5074354;28;20220;-76
2023/04/28 06:53:14;;;;;;;6.57;5.15;;;12.30;76.60;;;;;;5073219;28;20220;-77
2023/04/28 06:55:42;;;;;;;10.13;4.55;;;12.30;75.60;;;;;;5056007;28;20250;-76
2023/04/28 06:58:10;;;;;;;4.43;3.92;;;12.30;75.40;;;;;;5073193;28;20251;-77
2023/04/28 07:00:44;;;;;;;5.18;3.80;;;12.20;74.40;;;;;;5073243;28;20228;-76
2023/04/28 07:03:12;;;;;;;4.78;4.28;;;12.40;74.90;;;;;;5073332;28;20227;-75
2023/04/28 07:05:41;;;;;;;8.52;4.55;;;12.40;74.70;;;;;;5074056;28;20232;-76
2023/04/28 07:08:08;;;;;;;9.27;4.30;;;12.40;74.40;;;;;;5071918;28;20220;-75
2023/04/28 07:10:35;;;;;;;4.63;3.70;;;12.50;74.50;;;;;;5072322;28;20289;-76
2023/04/28 07:13:02;;;;;;;5.35;4.00;;;12.60;74.40;;;;;;5074156;28;20552;-75
2023/04/28 07:15:30;;;;;;;7.60;3.83;;;12.70;73.80;;;;;;5071096;28;20254;-74
2023/04/28 07:17:57;;;;;;;6.28;4.03;;;12.70;73.00;;;;;;5072436;28;20228;-76
2023/04/28 07:20:25;;;;;;;4.23;3.80;;;12.80;72.60;;;;;;5072539;28;20220;-75
2023/04/28 07:22:55;;;;;;;4.97;3.70;;;12.80;72.60;;;;;;5073519;28;20543;-75
2023/04/28 07:25:22;;;;;;;4.32;3.55;;;12.90;72.70;;;;;;5071942;28;20227;-75
2023/04/28 07:27:53;;;;;;;7.47;4.47;;;13.10;72.30;;;;;;5073354;28;20224;-75
2023/04/28 07:30:20;;;;;;;3.95;3.53;;;13.10;72.20;;;;;;5072435;28;20473;-75
2023/04/28 07:32:48;;;;;;;5.27;4.00;;;13.30;72.10;;;;;;5072783;28;20238;-75
2023/04/28 07:35:15;;;;;;;6.57;4.32;;;13.40;71.30;;;;;;5072581;28;20817;-76
2023/04/28 07:37:43;;;;;;;5.17;3.90;;;13.50;71.30;;;;;;5073248;28;20235;-75
2023/04/28 07:40:12;;;;;;;4.70;3.43;;;13.60;70.50;;;;;;5072842;28;20466;-75
2023/04/28 07:42:39;;;;;;;4.07;3.70;;;13.70;69.70;;;;;;5072839;28;20528;-76
2023/04/28 07:45:08;;;;;;;4.80;3.67;;;13.80;69.20;;;;;;5074329;28;20462;-75
2023/04/28 07:47:36;;;;;;;5.10;4.30;;;13.80;67.90;;;;;;5072188;28;20546;-75
2023/04/28 07:50:05;;;;;;;7.97;4.00;;;13.80;68.00;;;;;;5072515;28;20944;-76
2023/04/28 07:52:32;;;;;;;7.23;3.73;;;13.80;67.50;;;;;;5072689;28;20480;-75
2023/04/28 07:54:59;;;;;;;6.03;3.47;;;13.90;67.70;;;;;;5072589;28;20986;-76
2023/04/28 07:57:30;;;;;;;6.43;4.23;;;13.90;67.30;;;;;;5072651;28;20466;-75
2023/04/28 07:59:57;;;;;;;5.03;4.03;;;14.00;67.20;;;;;;5073385;28;20481;-76
2023/04/28 08:02:26;;;;;;;5.03;4.53;;;14.00;67.50;;;;;;5072646;28;20533;-76
2023/04/28 08:04:53;;;;;;;5.47;4.10;;;14.20;67.50;;;;;;5073743;28;20360;-76
2023/04/28 08:07:21;;;;;;;8.10;4.23;;;14.30;67.50;;;;;;5072707;28;20462;-76
2023/04/28 08:09:48;;;;;;;5.40;3.67;;;14.30;67.00;;;;;;5073320;28;20484;-75
2023/04/28 08:12:15;;;;;;;6.30;4.33;;;14.40;67.40;;;;;;5072471;28;20501;-76
2023/04/28 08:14:43;;;;;;;7.67;4.30;;;14.50;66.80;;;;;;5072541;28;20473;-76
2023/04/28 08:17:10;;;;;;;4.40;4.00;;;14.50;66.40;;;;;;5072129;28;20501;-76
2023/04/28 08:19:37;;;;;;;12.00;4.07;;;14.50;65.50;;;;;;5071872;28;20482;-76
2023/04/28 08:22:06;;;;;;;4.50;3.87;;;14.40;66.10;;;;;;5072199;28;20573;-76
2023/04/28 08:24:34;;;;;;;6.70;4.37;;;14.40;66.50;;;;;;5072041;28;20470;-76
2023/04/28 08:27:06;;;;;;;3.53;3.13;;;14.50;66.50;;;;;;5072580;28;20550;-76
2023/04/28 08:29:33;;;;;;;7.37;5.47;;;14.60;66.90;;;;;;5072220;28;20857;-76
2023/04/28 08:32:02;;;;;;;5.80;4.17;;;14.70;66.70;;;;;;5075494;28;20473;-76
2023/04/28 08:34:30;;;;;;;6.40;4.27;;;14.80;66.60;;;;;;5079159;28;20470;-75
2023/04/28 08:36:57;;;;;;;5.10;3.90;;;14.80;66.20;;;;;;5078832;28;20470;-75
2023/04/28 08:39:25;;;;;;;6.30;4.47;;;14.90;66.10;;;;;;5078622;28;20490;-76
2023/04/28 09:33:07;;;;;;;8.10;4.77;;;15.60;63.00;;;;;;5592029;23;20458;-74
2023/04/28 09:35:41;;;;;;;6.60;3.93;;;15.80;63.90;;;;;;4960646;28;20495;-75
2023/04/28 09:38:09;;;;;;;5.20;4.70;;;15.90;63.80;;;;;;4960029;29;21000;-75
2023/04/28 09:40:50;;;;;;;12.60;4.50;;;15.90;63.40;;;;;;4959594;28;20798;-76
2023/04/28 09:43:29;;;;;;;6.10;4.90;;;16.00;63.00;;;;;;4959205;28;20547;-76
2023/04/28 09:45:58;;;;;;;8.10;5.17;;;16.00;62.60;;;;;;4956676;28;20571;-75
2023/04/28 09:48:31;;;;;;;8.93;4.70;;;16.10;62.50;;;;;;4958375;29;20474;-76
2023/04/28 09:50:59;;;;;;;10.27;4.67;;;16.10;63.00;;;;;;4957667;29;20477;-74
2023/04/28 09:53:27;;;;;;;7.10;4.70;;;16.20;62.30;;;;;;4954239;28;20555;-75
2023/04/28 09:55:56;;;;;;;5.03;4.53;;;16.20;62.50;;;;;;4956434;29;20478;-75
2023/04/28 09:58:24;;;;;;;13.93;5.03;;;16.20;62.40;;;;;;4956923;29;20476;-76
2023/04/28 10:00:53;;;;;;;6.07;4.70;;;16.20;62.70;;;;;;4956719;29;20472;-75
2023/04/28 10:03:23;;;;;;;6.60;5.03;;;16.20;62.00;;;;;;4956596;29;20472;-75
2023/04/28 10:05:53;;;;;;;10.53;4.90;;;16.20;62.50;;;;;;4956817;28;20472;-75
2023/04/28 10:08:21;;;;;;;5.60;5.00;;;16.20;62.30;;;;;;4957285;29;20475;-75
2023/04/28 10:10:49;;;;;;;8.80;4.87;;;16.30;62.60;;;;;;4957925;29;20950;-75
2023/04/28 10:13:18;;;;;;;4.37;3.97;;;16.30;62.70;;;;;;4957889;29;20475;-75
2023/04/28 10:15:46;;;;;;;7.83;4.70;;;16.40;62.90;;;;;;4958218;29;20475;-76
2023/04/28 10:18:14;;;;;;;5.80;4.73;;;16.50;63.10;;;;;;4958389;29;20484;-75
2023/04/28 10:20:44;;;;;;;5.77;5.07;;;16.60;63.40;;;;;;4958732;29;20522;-75
2023/04/28 10:23:36;;;;;;;5.37;4.87;;;16.70;63.10;;;;;;4958594;28;20460;-75
2023/04/28 10:26:11;;;;;;;4.70;4.30;;;16.60;62.70;;;;;;4959168;29;20645;-74
2023/04/28 10:28:47;;;;;;;5.60;4.60;;;16.70;62.70;;;;;;4959115;29;20471;-74
2023/04/28 10:31:16;;;;;;;8.50;4.60;;;16.80;63.20;;;;;;4961101;29;20475;-74
2023/04/28 10:33:46;;;;;;;5.97;4.80;;;16.80;62.70;;;;;;4959834;29;20544;-75
2023/04/28 10:36:47;;;;;;;10.00;5.10;;;16.90;63.20;;;;;;4959839;28;20472;-75
2023/04/28 10:39:16;;;;;;;8.07;6.07;;;16.80;63.00;;;;;;4961572;29;20459;-75
2023/04/28 10:41:47;;;;;;;9.97;5.50;;;16.80;63.20;;;;;;4960006;29;20472;-75
2023/04/28 10:44:42;;;;;;;7.60;5.03;;;16.80;63.90;;;;;;4960270;29;20472;-75
2023/04/28 10:47:11;;;;;;;5.37;4.87;;;16.80;63.10;;;;;;4958596;29;20609;-75
2023/04/28 10:50:10;;;;;;;9.40;6.50;;;16.80;62.20;;;;;;4943583;29;20551;-75
2023/04/28 10:52:49;;;;;;;4.63;4.10;;;16.80;62.80;;;;;;4938513;29;20476;-76
2023/04/28 10:55:36;;;;;;;5.13;4.40;;;16.90;63.40;;;;;;4937763;29;20919;-76
2023/04/28 10:58:32;;;;;;;8.40;5.27;;;17.00;64.00;;;;;;4954878;29;20476;-76
2023/04/28 11:01:31;;;;;;;6.50;5.40;;;17.10;64.00;;;;;;4957433;29;20476;-76
2023/04/28 11:04:03;;;;;;;4.73;4.23;;;17.10;63.50;;;;;;4938661;29;20850;-76
2023/04/28 11:06:33;;;;;;;4.80;4.40;;;17.10;63.30;;;;;;4940197;29;20469;-76
2023/04/28 11:09:05;;;;;;;6.60;4.77;;;17.20;63.40;;;;;;4941020;29;20499;-76
2023/04/28 11:11:35;;;;;;;7.40;4.80;;;17.20;62.80;;;;;;4939358;29;20997;-76
2023/04/28 11:14:33;;;;;;;11.63;4.43;;;17.30;62.90;;;;;;4937273;29;20855;-76
2023/04/28 11:17:07;;;;;;;8.70;5.37;;;17.40;62.80;;;;;;4935937;29;20986;-76
2023/04/28 11:19:38;;;;;;;4.43;4.03;;;17.40;62.50;;;;;;4937126;29;20543;-76
2023/04/28 11:22:10;;;;;;;4.90;3.80;;;17.50;62.70;;;;;;4939245;28;20546;-76
2023/04/28 11:24:38;;;;;;;4.40;3.77;;;17.50;62.20;;;;;;4963815;28;20795;-75
2023/04/28 11:27:07;;;;;;;11.97;5.00;;;17.50;61.90;;;;;;4961672;28;20471;-76
2023/04/28 11:29:36;;;;;;;5.60;4.97;;;17.60;61.80;;;;;;4955426;29;20467;-75
2023/04/28 11:32:03;;;;;;;6.47;4.80;;;17.60;61.90;;;;;;4953856;28;20472;-76
2023/04/28 11:34:30;;;;;;;4.40;4.00;;;17.70;61.60;;;;;;4954037;28;20464;-76
2023/04/28 11:36:57;;;;;;;4.33;3.93;;;17.70;61.50;;;;;;4955726;29;20480;-76
2023/04/28 11:39:29;;;;;;;11.50;4.73;;;17.80;61.70;;;;;;4961077;28;20478;-76
2023/04/28 11:42:01;;;;;;;8.13;4.63;;;17.80;61.20;;;;;;4961328;28;20479;-76
2023/04/28 11:44:31;;;;;;;6.33;4.37;;;17.90;61.60;;;;;;4955712;29;20855;-76
2023/04/28 11:47:00;;;;;;;7.80;5.27;;;17.90;61.50;;;;;;4954510;28;20985;-76
2023/04/28 11:49:29;;;;;;;5.77;4.60;;;17.90;61.30;;;;;;4954733;29;20471;-76
2023/04/28 11:51:58;;;;;;;5.20;4.70;;;17.90;60.40;;;;;;4952860;28;20483;-75
2023/04/28 11:54:27;;;;;;;6.67;4.67;;;17.90;60.90;;;;;;4954371;28;20787;-76
2023/04/28 11:56:56;;;;;;;5.33;4.83;;;17.90;60.70;;;;;;4964420;28;20553;-76
2023/04/28 11:59:27;;;;;;;10.50;5.60;;;17.90;60.70;;;;;;4957951;28;20480;-75
2023/04/28 12:01:57;;;;;;;7.23;4.97;;;17.90;60.30;;;;;;4953511;28;20817;-76
2023/04/28 12:04:34;;;;;;;9.00;5.70;;;17.90;60.70;;;;;;4954205;29;20819;-75
2023/04/28 12:07:03;;;;;;;6.73;5.43;;;17.90;60.50;;;;;;4953496;28;20478;-76
2023/04/28 12:09:31;;;;;;;6.37;5.60;;;17.80;60.20;;;;;;4953881;28;20495;-76
2023/04/28 12:12:01;;;;;;;7.17;6.17;;;17.80;60.60;;;;;;4954102;28;20495;-76
2023/04/28 12:14:29;;;;;;;9.43;7.07;;;17.90;60.70;;;;;;4951555;28;20829;-76
2023/04/28 12:16:57;;;;;;;8.70;5.67;;;17.80;60.70;;;;;;4954759;29;20998;-75
2023/04/28 12:19:24;;;;;;;11.00;5.00;;;17.80;60.60;;;;;;4951413;28;20475;-76
2023/04/28 12:22:06;;;;;;;5.83;4.73;;;17.90;60.80;;;;;;4951676;28;20862;-76
2023/04/28 12:24:41;;;;;;;6.70;4.80;;;18.00;61.00;;;;;;4958664;28;20463;-75
2023/04/28 12:27:16;;;;;;;14.43;5.40;;;18.00;61.20;;;;;;4952299;28;20486;-76
2023/04/28 12:29:57;;;;;;;6.73;6.03;;;18.00;61.00;;;;;;4916259;28;20476;-75
2023/04/28 12:32:42;;;;;;;7.30;5.47;;;18.00;61.30;;;;;;4950192;29;20486;-75
2023/04/28 12:35:10;;;;;;;7.70;6.07;;;18.00;61.60;;;;;;4953713;28;20468;-75
2023/04/28 12:37:46;;;;;;;7.40;5.20;;;18.00;61.50;;;;;;4954999;28;20553;-76
2023/04/28 12:40:14;;;;;;;6.40;5.80;;;18.00;61.40;;;;;;4950747;28;20471;-76
2023/04/28 12:42:41;;;;;;;8.67;5.77;;;18.00;61.50;;;;;;4953781;29;20547;-75
2023/04/28 12:45:08;;;;;;;6.40;5.87;;;18.00;61.80;;;;;;4946069;28;20480;-76
2023/04/28 12:47:37;;;;;;;5.57;5.07;;;18.00;62.30;;;;;;4949295;28;20467;-75
2023/04/28 12:50:07;;;;;;;9.70;6.20;;;18.00;62.50;;;;;;4951036;28;20511;-75
2023/04/28 12:52:36;;;;;;;6.30;5.70;;;18.00;62.30;;;;;;4944317;29;20554;-75
2023/04/28 12:55:03;;;;;;;7.30;5.77;;;18.00;62.40;;;;;;4952965;28;20484;-74
2023/04/28 12:57:31;;;;;;;7.90;6.10;;;18.10;62.70;;;;;;4955409;29;20534;-76
2023/04/28 12:59:58;;;;;;;11.90;6.23;;;18.10;62.30;;;;;;4954846;29;20526;-76
2023/04/28 13:02:27;;;;;;;10.83;5.50;;;18.10;62.20;;;;;;4954907;29;20475;-75
2023/04/28 13:04:54;;;;;;;10.87;5.47;;;18.10;62.70;;;;;;4954809;29;20539;-75
2023/04/28 13:07:22;;;;;;;6.90;5.40;;;18.00;62.50;;;;;;4954409;29;20530;-75
2023/04/28 13:09:50;;;;;;;6.57;5.93;;;18.00;62.50;;;;;;4955166;29;20475;-75
2023/04/28 13:12:17;;;;;;;6.50;4.83;;;18.10;62.50;;;;;;4955207;29;20550;-76
2023/04/28 13:14:44;;;;;;;5.37;4.50;;;18.10;62.60;;;;;;4953289;28;21059;-76
2023/04/28 13:17:13;;;;;;;7.23;6.13;;;18.20;62.80;;;;;;4943488;28;20475;-75
2023/04/28 13:19:49;;;;;;;6.63;5.70;;;18.30;62.30;;;;;;4959570;29;20547;-76
2023/04/28 13:22:16;;;;;;;5.97;5.37;;;18.30;62.60;;;;;;4958266;29;20471;-76
2023/04/28 13:24:44;;;;;;;6.03;5.47;;;18.30;62.40;;;;;;4959469;29;20484;-76
2023/04/28 13:27:11;;;;;;;7.77;5.53;;;18.30;62.60;;;;;;4956804;29;20468;-76
2023/04/28 13:29:38;;;;;;;11.60;6.87;;;18.40;62.80;;;;;;4958776;29;20472;-76
2023/04/28 13:32:06;;;;;;;9.23;5.87;;;18.30;62.30;;;;;;4947775;29;20964;-74
2023/04/28 13:34:36;;;;;;;6.17;5.40;;;18.30;62.30;;;;;;4956875;29;20538;-77
2023/04/28 13:37:03;;;;;;;11.30;6.03;;;18.30;62.60;;;;;;4958578;29;20479;-75
2023/04/28 13:39:31;;;;;;;5.50;4.97;;;18.30;62.60;;;;;;4957668;29;20540;-75
2023/04/28 13:42:00;;;;;;;7.80;5.90;;;18.20;63.00;;;;;;4958348;29;20475;-76
2023/04/28 13:44:27;;;;;;;8.47;5.90;;;18.20;63.20;;;;;;4957951;29;21042;-76
2023/04/28 13:46:55;;;;;;;6.43;4.93;;;18.20;63.40;;;;;;4956019;29;20475;-75
2023/04/28 13:49:23;;;;;;;7.63;4.67;;;18.20;63.60;;;;;;4958038;29;20534;-76
2023/04/28 13:51:50;;;;;;;5.43;4.90;;;18.20;63.70;;;;;;4957345;29;20497;-75